Time;durP1;ratioP1;P1;durP2;ratioP2;P2;SDS_P1;SDS_P2;PMS_P1;PMS_P2;Temp;Humidity;BMP_temperature;BMP_pressure;BME280_temperature;BME280_humidity;BME280_pressure;Samples;Min_cycle;Max_cycle;Signal;HPM_P1;HPM_P2
2022/04/25 00:01:31;;;;;;;39.08;25.42;;;;;;;-141.50;100.00;63355.56;5109804;28;20055;-78
2022/04/25 00:03:58;;;;;;;40.05;25.88;;;;;;;-141.50;100.00;63355.56;5095524;28;20052;-78
2022/04/25 00:06:24;;;;;;;41.72;26.45;;;;;;;-141.50;100.00;63355.56;5091334;28;20121;-79
2022/04/25 00:08:51;;;;;;;41.83;26.58;;;;;;;-141.50;100.00;63355.56;5090789;28;20080;-79
2022/04/25 00:11:17;;;;;;;45.17;28.70;;;;;;;-141.50;100.00;63355.56;5091379;28;20080;-79
2022/04/25 00:13:44;;;;;;;44.50;27.92;;;;;;;-141.50;100.00;63355.56;5090964;28;20063;-77
2022/04/25 00:16:11;;;;;;;46.40;27.08;;;;;;;-141.50;100.00;63355.56;5077287;28;20107;-80
2022/04/25 00:18:37;;;;;;;45.42;29.35;;;;;;;-141.50;100.00;63355.56;5071488;28;20052;-80
2022/04/25 00:21:04;;;;;;;49.33;31.27;;;;;;;-141.50;100.00;63355.56;5071782;28;20441;-76
2022/04/25 00:23:31;;;;;;;52.47;31.48;;;;;;;-141.50;100.00;63355.56;5070822;28;20044;-78
2022/04/25 00:25:57;;;;;;;51.83;31.15;;;;;;;-141.50;100.00;63355.56;5072169;28;20489;-80
2022/04/25 00:28:24;;;;;;;51.70;31.60;;;;;;;-141.50;100.00;63355.56;5069723;28;20267;-80
2022/04/25 00:30:50;;;;;;;53.47;32.05;;;;;;;-141.50;100.00;63355.56;5080685;28;20132;-78
2022/04/25 00:33:17;;;;;;;55.92;33.97;;;;;;;-141.50;100.00;63355.56;5079623;28;20610;-82
2022/04/25 00:35:43;;;;;;;58.58;34.83;;;;;;;-141.50;100.00;63355.56;5081994;28;20091;-80
2022/04/25 00:38:10;;;;;;;58.03;34.58;;;;;;;-141.50;100.00;63355.56;5070976;28;20109;-80
2022/04/25 00:40:37;;;;;;;55.55;34.72;;;;;;;-141.50;100.00;63355.56;5073995;28;20052;-79
2022/04/25 00:43:04;;;;;;;54.88;33.40;;;;;;;-141.50;100.00;63355.56;5071330;28;20398;-80
2022/04/25 00:45:33;;;;;;;57.42;34.97;;;;;;;-141.50;100.00;63355.56;5071574;28;20048;-78
2022/04/25 00:48:00;;;;;;;55.85;34.03;;;;;;;-141.50;100.00;63355.56;5070747;28;20056;-79
2022/04/25 00:50:28;;;;;;;59.25;34.10;;;;;;;-141.50;100.00;63355.56;5071222;28;20127;-78
2022/04/25 00:52:55;;;;;;;58.78;35.03;;;;;;;-141.50;100.00;63355.56;5085189;28;20107;-78
2022/04/25 00:55:23;;;;;;;60.90;36.10;;;;;;;-141.50;100.00;63355.56;5075883;28;20059;-78
2022/04/25 00:57:52;;;;;;;59.25;34.53;;;;;;;-141.50;100.00;63355.56;5075993;28;20120;-76
2022/04/25 01:00:19;;;;;;;65.07;37.22;;;;;;;-141.50;100.00;63355.56;5091615;28;20044;-79
2022/04/25 01:02:46;;;;;;;69.50;37.53;;;;;;;-141.50;100.00;63355.56;5092174;28;20109;-80
2022/04/25 01:05:13;;;;;;;64.90;36.95;;;;;;;-141.50;100.00;63355.56;5091088;28;20066;-79
2022/04/25 01:07:39;;;;;;;69.93;39.00;;;;;;;-141.50;100.00;63355.56;5089425;28;20583;-80
2022/04/25 01:10:08;;;;;;;64.65;37.95;;;;;;;-141.50;100.00;63355.56;5090406;28;20123;-79
2022/04/25 01:12:35;;;;;;;70.20;40.47;;;;;;;-141.50;100.00;63355.56;5092080;28;20056;-78
2022/04/25 01:15:05;;;;;;;68.38;39.83;;;;;;;-141.50;100.00;63355.56;5091578;28;20056;-79
2022/04/25 01:17:32;;;;;;;64.85;38.83;;;;;;;-141.50;100.00;63355.56;5092617;28;20524;-77
2022/04/25 01:19:59;;;;;;;67.53;38.97;;;;;;;-141.50;100.00;63355.56;5091436;28;20091;-81
2022/04/25 01:22:35;;;;;;;65.63;38.90;;;;;;;-141.50;100.00;63355.56;5089431;28;20105;-81
2022/04/25 01:28:07;;;;;;;65.68;39.05;;;;;;;-141.50;100.00;63355.56;5009708;28;20050;-78
2022/04/25 01:30:33;;;;;;;65.22;37.15;;;;;;;-141.50;100.00;63355.56;5007999;28;20050;-79
2022/04/25 01:33:00;;;;;;;63.33;35.95;;;;;;;-141.50;100.00;63355.56;5046117;28;20108;-78
2022/04/25 01:35:27;;;;;;;62.08;37.53;;;;;;;-141.50;100.00;63355.56;5089209;28;20130;-80
2022/04/25 01:37:53;;;;;;;62.95;35.17;;;;;;;-141.50;100.00;63355.56;5090679;28;20096;-78
2022/04/25 01:40:20;;;;;;;67.80;37.35;;;;;;;-141.50;100.00;63355.56;5089434;28;20052;-80
2022/04/25 01:42:46;;;;;;;65.13;39.10;;;;;;;-141.50;100.00;63355.56;5088642;28;20466;-79
2022/04/25 01:45:13;;;;;;;62.95;37.45;;;;;;;-141.50;100.00;63355.56;5090015;28;20471;-79
2022/04/25 01:47:40;;;;;;;63.05;37.35;;;;;;;-141.50;100.00;63355.56;5088566;28;20097;-78
2022/04/25 01:50:08;;;;;;;63.85;37.30;;;;;;;-141.50;100.00;63355.56;5089530;28;20232;-78
2022/04/25 01:52:34;;;;;;;60.00;35.97;;;;;;;-141.50;100.00;63355.56;5089206;28;20044;-77
2022/04/25 01:55:04;;;;;;;61.60;36.35;;;;;;;-141.50;100.00;63355.56;5091117;28;20048;-76
2022/04/25 01:57:31;;;;;;;61.72;36.63;;;;;;;-141.50;100.00;63355.56;5086390;28;20041;-78
2022/04/25 01:59:57;;;;;;;57.40;35.88;;;;;;;-141.50;100.00;63355.56;5069866;28;20102;-79
2022/04/25 02:02:25;;;;;;;61.08;35.28;;;;;;;-141.50;100.00;63355.56;5068276;28;20117;-78
2022/04/25 02:04:52;;;;;;;57.30;34.88;;;;;;;-141.50;100.00;63355.56;5068704;28;20415;-79
2022/04/25 02:07:19;;;;;;;60.80;36.38;;;;;;;-141.50;100.00;63355.56;5069417;28;20381;-78
2022/04/25 02:09:46;;;;;;;55.03;33.63;;;;;;;-141.50;100.00;63355.56;5067803;28;20146;-77
2022/04/25 02:12:12;;;;;;;60.83;35.08;;;;;;;-141.50;100.00;63355.56;5068346;28;20430;-77
2022/04/25 02:14:41;;;;;;;59.10;34.10;;;;;;;-141.50;100.00;63355.56;5068602;28;20140;-79
2022/04/25 02:17:09;;;;;;;59.17;35.10;;;;;;;-141.50;100.00;63355.56;5068646;28;20064;-78
2022/04/25 02:19:38;;;;;;;62.70;36.40;;;;;;;-141.50;100.00;63355.56;5066754;28;20048;-77
2022/04/25 02:22:07;;;;;;;59.00;34.38;;;;;;;-141.50;100.00;63355.56;5067367;28;20084;-78
2022/04/25 02:24:34;;;;;;;61.75;36.35;;;;;;;-141.50;100.00;63355.56;5068699;28;20491;-82
2022/04/25 02:27:04;;;;;;;56.35;34.63;;;;;;;-141.50;100.00;63355.56;5067458;28;20282;-79
2022/04/25 02:29:35;;;;;;;57.58;34.63;;;;;;;-141.50;100.00;63355.56;5067328;28;20056;-77
2022/04/25 02:32:03;;;;;;;57.25;34.72;;;;;;;-141.50;100.00;63355.56;5068899;28;20080;-77
2022/04/25 02:34:31;;;;;;;56.72;33.28;;;;;;;-141.50;100.00;63355.56;5069454;28;20103;-77
2022/04/25 02:36:59;;;;;;;59.70;34.08;;;;;;;-141.50;100.00;63355.56;5068334;28;20264;-81
2022/04/25 02:39:25;;;;;;;55.47;33.45;;;;;;;-141.50;100.00;63355.56;5069558;28;20135;-78
2022/04/25 02:41:52;;;;;;;52.03;33.60;;;;;;;-141.50;100.00;63355.56;5069918;28;20067;-80
2022/04/25 02:44:20;;;;;;;56.67;34.72;;;;;;;-141.50;100.00;63355.56;5067794;28;20052;-76
2022/04/25 02:46:46;;;;;;;53.25;33.67;;;;;;;-141.50;100.00;63355.56;5068023;28;20072;-76
2022/04/25 02:49:13;;;;;;;57.65;34.13;;;;;;;-141.50;100.00;63355.56;5068446;28;20048;-79
2022/04/25 02:51:39;;;;;;;58.17;34.17;;;;;;;-141.50;100.00;63355.56;5069608;28;20045;-78
2022/04/25 02:54:06;;;;;;;52.10;31.50;;;;;;;-141.50;100.00;63355.56;5068347;28;20136;-79
2022/04/25 02:56:32;;;;;;;51.42;31.42;;;;;;;-141.50;100.00;63355.56;5067469;28;20106;-78
2022/04/25 02:58:59;;;;;;;55.08;32.75;;;;;;;-141.50;100.00;63355.56;5068195;28;20056;-78
2022/04/25 03:01:25;;;;;;;53.60;32.60;;;;;;;-141.50;100.00;63355.56;5072894;28;20113;-80
2022/04/25 03:03:52;;;;;;;49.80;31.33;;;;;;;-141.50;100.00;63355.56;5088706;28;20050;-79
2022/04/25 03:06:19;;;;;;;53.28;31.00;;;;;;;-141.50;100.00;63355.56;5092966;28;20122;-77
2022/04/25 03:08:45;;;;;;;50.17;31.30;;;;;;;-141.50;100.00;63355.56;5088941;28;20087;-80
2022/04/25 03:11:12;;;;;;;45.58;29.65;;;;;;;-141.50;100.00;63355.56;5090680;28;20070;-78
2022/04/25 03:13:38;;;;;;;44.92;28.25;;;;;;;-141.50;100.00;63355.56;5092473;28;20109;-77
2022/04/25 03:16:06;;;;;;;43.53;28.75;;;;;;;-141.50;100.00;63355.56;5092482;28;20051;-79
2022/04/25 03:18:33;;;;;;;42.42;27.23;;;;;;;-141.50;100.00;63355.56;5090745;28;20132;-80
2022/04/25 03:20:59;;;;;;;41.28;26.83;;;;;;;-141.50;100.00;63355.56;5090535;28;20496;-77
2022/04/25 03:23:26;;;;;;;41.20;25.65;;;;;;;-141.50;100.00;63355.56;5090913;28;20351;-78
2022/04/25 03:25:53;;;;;;;37.65;25.45;;;;;;;-141.50;100.00;63355.56;5093145;28;20055;-77
2022/04/25 03:28:21;;;;;;;40.53;25.70;;;;;;;-141.50;100.00;63355.56;5092125;28;20048;-79
2022/04/25 03:30:47;;;;;;;39.70;25.00;;;;;;;-141.50;100.00;63355.56;5090558;28;20067;-79
2022/04/25 03:33:15;;;;;;;37.08;25.13;;;;;;;-141.50;100.00;63355.56;5090787;28;20123;-79
2022/04/25 03:35:46;;;;;;;36.60;24.38;;;;;;;-141.50;100.00;63355.56;5090588;28;20457;-78
2022/04/25 03:38:16;;;;;;;36.75;24.73;;;;;;;-141.50;100.00;63355.56;5088956;28;20070;-79
2022/04/25 03:40:43;;;;;;;37.97;24.38;;;;;;;-141.50;100.00;63355.56;5088645;28;20052;-80
2022/04/25 03:43:10;;;;;;;36.47;24.10;;;;;;;-141.50;100.00;63355.56;5092737;28;20107;-81
2022/04/25 03:45:37;;;;;;;36.75;23.73;;;;;;;-141.50;100.00;63355.56;5090888;28;20412;-80
2022/04/25 03:48:04;;;;;;;37.15;24.50;;;;;;;-141.50;100.00;63355.56;5070849;28;20110;-79
2022/04/25 03:50:33;;;;;;;37.25;24.65;;;;;;;-141.50;100.00;63355.56;5080447;28;20070;-77
2022/04/25 03:53:17;;;;;;;36.40;23.70;;;;;;;-141.50;100.00;63355.56;5087950;28;20048;-80
2022/04/25 03:58:30;;;;;;;35.28;23.23;;;;;;;-141.50;100.00;63355.56;5079914;28;20098;-79
2022/04/25 04:00:57;;;;;;;33.45;22.50;;;;;;;-141.50;100.00;63355.56;5071038;28;20433;-81
2022/04/25 04:03:24;;;;;;;31.58;20.70;;;;;;;-141.50;100.00;63355.56;5069019;28;20055;-79
2022/04/25 04:05:52;;;;;;;29.92;20.60;;;;;;;-141.50;100.00;63355.56;5072289;28;20617;-80
2022/04/25 04:08:19;;;;;;;27.30;19.08;;;;;;;-141.50;100.00;63355.56;5068030;28;20098;-77
2022/04/25 04:10:45;;;;;;;27.65;19.60;;;;;;;-141.50;100.00;63355.56;5069415;28;20048;-80
2022/04/25 04:13:12;;;;;;;27.02;18.10;;;;;;;-141.50;100.00;63355.56;5070134;28;20044;-79
2022/04/25 04:15:40;;;;;;;27.48;18.23;;;;;;;-141.50;100.00;63355.56;5068676;28;20440;-80
2022/04/25 04:18:07;;;;;;;26.58;18.00;;;;;;;-141.50;100.00;63355.56;5071776;28;20059;-80
2022/04/25 04:20:34;;;;;;;23.88;16.67;;;;;;;-141.50;100.00;63355.56;5072366;28;20565;-81
2022/04/25 04:23:01;;;;;;;24.88;17.08;;;;;;;-141.50;100.00;63355.56;5068041;28;20056;-80
2022/04/25 04:25:28;;;;;;;25.33;16.55;;;;;;;-141.50;100.00;63355.56;5072863;28;20055;-81
2022/04/25 04:27:54;;;;;;;23.08;16.00;;;;;;;-141.50;100.00;63355.56;5072837;28;20091;-80
2022/04/25 04:30:21;;;;;;;25.45;16.48;;;;;;;-141.50;100.00;63355.56;5075010;28;20455;-80
2022/04/25 04:32:48;;;;;;;20.80;14.25;;;;;;;-141.50;100.00;63355.56;5073024;28;20067;-77
2022/04/25 04:36:17;;;;;;;22.23;14.57;;;;;;;-141.50;100.00;63355.56;5073328;28;20500;-78
2022/04/25 04:38:07;;;;;;;19.90;13.50;;;;;;;-141.50;100.00;63355.56;5073681;28;20048;-79
2022/04/25 04:40:34;;;;;;;20.17;13.30;;;;;;;-141.50;100.00;63355.56;5073491;28;20131;-77
2022/04/25 04:43:02;;;;;;;20.30;14.30;;;;;;;-141.50;100.00;63355.56;5075006;28;20497;-80
2022/04/25 04:45:29;;;;;;;20.55;13.57;;;;;;;-141.50;100.00;63355.56;5077503;28;20070;-82
2022/04/25 04:47:55;;;;;;;18.08;12.48;;;;;;;-141.50;100.00;63355.56;5074071;28;20052;-80
2022/04/25 04:50:22;;;;;;;16.27;12.00;;;;;;;-141.50;100.00;63355.56;5072437;28;20048;-81
2022/04/25 04:52:59;;;;;;;16.45;11.32;;;;;;;-141.50;100.00;63355.56;5068848;28;20048;-78
2022/04/25 04:55:27;;;;;;;15.23;11.10;;;;;;;-141.50;100.00;63355.56;5074548;28;20052;-78
2022/04/25 04:57:55;;;;;;;16.38;10.48;;;;;;;-141.50;100.00;63355.56;5080277;28;20340;-81
2022/04/25 05:00:23;;;;;;;16.48;10.93;;;;;;;-141.50;100.00;63355.56;5093861;28;20048;-81
2022/04/25 05:02:52;;;;;;;18.23;11.70;;;;;;;-141.50;100.00;63355.56;5098382;28;20051;-80
2022/04/25 05:05:19;;;;;;;18.50;11.82;;;;;;;-141.50;100.00;63355.56;5090532;28;20056;-79
2022/04/25 05:07:46;;;;;;;16.42;11.27;;;;;;;-141.50;100.00;63355.56;5097822;28;20048;-79
2022/04/25 05:10:13;;;;;;;22.63;12.98;;;;;;;-141.50;100.00;63355.56;5100837;28;20032;-80
2022/04/25 05:12:47;;;;;;;18.73;12.73;;;;;;;-141.50;100.00;63355.56;5100572;28;20048;-79
2022/04/25 05:15:13;;;;;;;24.30;14.60;;;;;;;-141.50;100.00;63355.56;5100268;28;20059;-80
2022/04/25 05:17:42;;;;;;;22.17;14.00;;;;;;;-141.50;100.00;63355.56;5099185;28;20424;-79
2022/04/25 05:20:11;;;;;;;26.33;15.57;;;;;;;-141.50;100.00;63355.56;5102031;28;20101;-79
2022/04/25 05:22:39;;;;;;;26.35;15.48;;;;;;;-141.50;100.00;63355.56;5101692;28;20077;-77
2022/04/25 05:25:06;;;;;;;29.08;15.20;;;;;;;-141.50;100.00;63355.56;5093024;28;20071;-80
2022/04/25 05:27:33;;;;;;;20.30;13.38;;;;;;;-141.50;100.00;63355.56;5095345;28;20075;-77
2022/04/25 05:30:00;;;;;;;27.42;16.20;;;;;;;-141.50;100.00;63355.56;5095947;28;20095;-78
2022/04/25 05:32:26;;;;;;;32.90;16.38;;;;;;;-141.50;100.00;63355.56;5091457;28;20079;-79
2022/04/25 05:34:53;;;;;;;29.92;17.58;;;;;;;-141.50;100.00;63355.56;5092572;28;20159;-78
2022/04/25 05:37:19;;;;;;;29.65;18.40;;;;;;;-141.50;100.00;63355.56;5100788;28;20040;-79
2022/04/25 05:39:46;;;;;;;35.17;18.77;;;;;;;-141.50;100.00;63355.56;5104644;28;20074;-78
2022/04/25 05:42:12;;;;;;;29.67;17.85;;;;;;;-141.50;100.00;63355.56;5103981;28;20044;-76
2022/04/25 05:44:39;;;;;;;53.30;20.92;;;;;;;-141.50;100.00;63355.56;5089065;28;20048;-77
2022/04/25 05:47:06;;;;;;;33.97;20.58;;;;;;;-141.50;100.00;63355.56;5084976;28;20109;-78
2022/04/25 05:52:18;;;;;;;38.92;22.00;;;;;;;-141.50;100.00;63355.56;5086830;28;20044;-80
2022/04/25 05:54:46;;;;;;;39.53;23.02;;;;;;;-141.50;100.00;63355.56;5070366;28;20207;-80
2022/04/25 05:57:13;;;;;;;44.42;24.45;;;;;;;-141.50;100.00;63355.56;5070333;28;20143;-76
2022/04/25 05:59:39;;;;;;;45.13;24.90;;;;;;;-141.50;100.00;63355.56;5088498;28;20056;-82
2022/04/25 06:02:07;;;;;;;52.60;25.20;;;;;;;-141.50;100.00;63355.56;5074157;28;20052;-76
2022/04/25 06:04:34;;;;;;;69.93;29.02;;;;;;;-141.50;100.00;63355.56;5087393;28;20047;-80
2022/04/25 06:07:04;;;;;;;67.57;27.23;;;;;;;-141.50;100.00;63355.56;5073870;28;20059;-78
2022/04/25 06:09:30;;;;;;;82.25;30.70;;;;;;;-141.50;100.00;63355.56;5095289;28;20043;-79
2022/04/25 06:11:58;;;;;;;102.88;35.88;;;;;;;-141.50;100.00;63355.56;5080454;28;20047;-80
2022/04/25 06:14:24;;;;;;;97.30;35.13;;;;;;;-141.50;100.00;63355.56;5093555;28;20048;-80
2022/04/25 06:16:51;;;;;;;97.53;34.72;;;;;;;-141.50;100.00;63355.56;5092937;28;20044;-80
2022/04/25 06:19:18;;;;;;;118.07;36.20;;;;;;;-141.50;100.00;63355.56;5091977;28;20338;-78
2022/04/25 06:21:45;;;;;;;129.88;36.33;;;;;;;-141.50;100.00;63355.56;5090189;28;20086;-79
2022/04/25 06:24:12;;;;;;;132.73;39.30;;;;;;;-141.50;100.00;63355.56;5088566;28;20056;-79
2022/04/25 06:26:38;;;;;;;104.15;36.75;;;;;;;-141.50;100.00;63355.56;5091206;28;20079;-79
2022/04/25 06:29:05;;;;;;;131.68;42.45;;;;;;;-141.50;100.00;63355.56;5080633;28;20520;-80
2022/04/25 06:31:32;;;;;;;150.60;37.92;;;;;;;-141.50;100.00;63355.56;5070830;28;20048;-79
2022/04/25 06:33:58;;;;;;;183.60;42.10;;;;;;;-141.50;100.00;63355.56;5072799;28;20048;-80
2022/04/25 06:36:25;;;;;;;180.20;43.70;;;;;;;-141.50;100.00;63355.56;5075745;28;20076;-79
2022/04/25 06:38:52;;;;;;;112.38;37.33;;;;;;;-141.50;100.00;63355.56;5072711;28;20048;-79
2022/04/25 06:41:21;;;;;;;131.68;41.15;;;;;;;-141.50;100.00;63355.56;5080135;28;20082;-80
2022/04/25 06:43:47;;;;;;;101.38;39.90;;;;;;;-141.50;100.00;63355.56;5078406;28;20150;-79
2022/04/25 06:46:14;;;;;;;165.70;43.38;;;;;;;-141.50;100.00;63355.56;5077914;28;20048;-79
2022/04/25 06:49:19;;;;;;;141.45;37.75;;;;;;;-141.50;100.00;63355.56;5078204;28;20060;-79
2022/04/25 06:51:28;;;;;;;121.60;38.83;;;;;;;-141.50;100.00;63355.56;5077774;28;20109;-78
2022/04/25 06:53:55;;;;;;;133.48;39.63;;;;;;;-141.50;100.00;63355.56;5075439;28;20046;-78
2022/04/25 06:56:22;;;;;;;175.10;45.67;;;;;;;-141.50;100.00;63355.56;5082024;28;20072;-77
2022/04/25 06:58:48;;;;;;;174.55;40.67;;;;;;;-141.50;100.00;63355.56;5094723;28;20082;-79
2022/04/25 07:01:14;;;;;;;168.00;46.33;;;;;;;-141.50;100.00;63355.56;5099267;28;20051;-80
2022/04/25 07:03:41;;;;;;;163.27;45.58;;;;;;;-141.50;100.00;63355.56;5094424;28;20419;-80
2022/04/25 07:06:08;;;;;;;168.65;46.20;;;;;;;-141.50;100.00;63355.56;5097004;28;20055;-80
2022/04/25 07:08:35;;;;;;;115.97;35.78;;;;;;;-141.50;100.00;63355.56;5090950;28;20059;-79
2022/04/25 07:11:01;;;;;;;176.48;35.92;;;;;;;-141.50;100.00;63355.56;5083045;28;20094;-78
2022/04/25 07:13:28;;;;;;;121.18;36.13;;;;;;;-141.50;100.00;63355.56;5075951;28;20052;-77
2022/04/25 07:16:01;;;;;;;87.80;34.80;;;;;;;-141.50;100.00;63355.56;5075927;28;20049;-79
2022/04/25 07:18:29;;;;;;;65.60;32.92;;;;;;;-141.50;100.00;63355.56;5073443;28;20516;-80
2022/04/25 07:20:56;;;;;;;57.92;30.88;;;;;;;-141.50;100.00;63355.56;5075304;28;20551;-80
2022/04/25 07:28:58;;;;;;;70.90;32.67;;;;;;;-141.50;100.00;63355.56;5073191;28;20056;-80
2022/04/25 07:31:24;;;;;;;72.00;35.45;;;;;;;-141.50;100.00;63355.56;5073985;28;20052;-78
2022/04/25 07:33:56;;;;;;;67.53;30.45;;;;;;;-141.50;100.00;63355.56;5075590;28;20413;-79
2022/04/25 07:36:24;;;;;;;63.83;32.10;;;;;;;-141.50;100.00;63355.56;5075222;28;20084;-78
2022/04/25 07:38:51;;;;;;;53.75;28.58;;;;;;;-141.50;100.00;63355.56;5068708;28;20532;-78
2022/04/25 07:41:18;;;;;;;70.60;28.52;;;;;;;-141.50;100.00;63355.56;5078469;28;20485;-79
2022/04/25 07:43:44;;;;;;;71.80;28.88;;;;;;;-141.50;100.00;63355.56;5074229;28;20052;-78
2022/04/25 07:46:13;;;;;;;58.92;31.38;;;;;;;-141.50;100.00;63355.56;5074452;28;20053;-77
2022/04/25 07:48:40;;;;;;;53.55;28.20;;;;;;;-141.50;100.00;63355.56;5073368;28;20125;-79
2022/04/25 07:51:06;;;;;;;59.17;30.00;;;;;;;-141.50;100.00;63355.56;5073508;28;20135;-80
2022/04/25 07:53:33;;;;;;;73.70;32.42;;;;;;;-141.50;100.00;63355.56;5074715;28;20044;-81
2022/04/25 07:55:59;;;;;;;90.35;32.55;;;;;;;-141.50;100.00;63355.56;5075792;28;20052;-77
2022/04/25 07:58:26;;;;;;;95.72;31.52;;;;;;;-141.50;100.00;63355.56;5073049;28;20116;-79
2022/04/25 08:00:52;;;;;;;296.40;33.40;;;;;;;-141.50;100.00;63355.56;5071613;28;20048;-79
2022/04/25 08:03:25;;;;;;;243.60;33.63;;;;;;;-141.50;100.00;63355.56;5072469;28;20048;-80
2022/04/25 08:05:51;;;;;;;125.78;33.88;;;;;;;-141.50;100.00;63355.56;5075363;28;20112;-79
2022/04/25 08:08:18;;;;;;;301.50;36.05;;;;;;;-141.50;100.00;63355.56;5071384;28;20087;-77
2022/04/25 08:10:44;;;;;;;397.95;36.97;;;;;;;-141.50;100.00;63355.56;5073315;28;20074;-79
2022/04/25 08:18:42;;;;;;;472.13;39.13;;;;;;;-141.50;100.00;63355.56;5072472;28;20417;-79
2022/04/25 08:21:08;;;;;;;313.48;37.75;;;;;;;-141.50;100.00;63355.56;5070970;28;20110;-77
2022/04/25 08:23:35;;;;;;;417.25;39.03;;;;;;;-141.50;100.00;63355.56;5069734;28;20076;-78
2022/04/25 08:26:01;;;;;;;356.25;38.72;;;;;;;-141.50;100.00;63355.56;5072752;28;20056;-80
2022/04/25 08:28:29;;;;;;;361.02;41.13;;;;;;;-141.50;100.00;63355.56;5071080;28;20052;-78
2022/04/25 08:31:16;;;;;;;413.02;41.38;;;;;;;-141.50;100.00;63355.56;5071094;28;20657;-79
2022/04/25 08:33:46;;;;;;;360.25;40.10;;;;;;;-141.50;100.00;63355.56;5073813;28;20459;-79
2022/04/25 08:36:13;;;;;;;340.80;40.65;;;;;;;-141.50;100.00;63355.56;5076647;28;20087;-81
2022/04/25 08:38:43;;;;;;;177.98;39.22;;;;;;;-141.50;100.00;63355.56;5067511;28;20094;-79
2022/04/25 08:41:14;;;;;;;262.20;41.42;;;;;;;-141.50;100.00;63355.56;5071225;28;20484;-80
2022/04/25 08:43:42;;;;;;;225.13;39.85;;;;;;;-141.50;100.00;63355.56;5090669;28;20075;-79
2022/04/25 08:46:10;;;;;;;180.60;39.92;;;;;;;-141.50;100.00;63355.56;5095288;28;20056;-82
2022/04/25 08:48:41;;;;;;;267.48;39.63;;;;;;;-141.50;100.00;63355.56;5091678;28;20047;-81
2022/04/25 08:51:10;;;;;;;221.55;41.40;;;;;;;-141.50;100.00;63355.56;5093385;28;20056;-78
2022/04/25 08:53:40;;;;;;;230.85;41.25;;;;;;;-141.50;100.00;63355.56;5092791;28;20040;-79
2022/04/25 08:56:07;;;;;;;297.00;40.70;;;;;;;-141.50;100.00;63355.56;5091247;28;20100;-80
2022/04/25 08:58:36;;;;;;;208.93;40.45;;;;;;;-141.50;100.00;63355.56;5092053;28;20079;-81
2022/04/25 09:01:03;;;;;;;243.00;40.33;;;;;;;-141.50;100.00;63355.56;5090019;28;20055;-80
2022/04/25 09:03:29;;;;;;;162.68;41.00;;;;;;;-141.50;100.00;63355.56;5091343;28;20052;-80
2022/04/25 09:05:58;;;;;;;157.18;41.28;;;;;;;-141.50;100.00;63355.56;5091705;28;20052;-79
2022/04/25 09:08:24;;;;;;;106.00;41.20;;;;;;;-141.50;100.00;63355.56;5086549;28;20056;-79
2022/04/25 09:12:09;;;;;;;146.63;41.33;;;;;;;-141.50;100.00;63355.56;5093563;28;20080;-81
2022/04/25 09:13:37;;;;;;;165.93;38.92;;;;;;;-141.50;100.00;63355.56;5098460;28;20056;-79
2022/04/25 09:16:16;;;;;;;155.23;39.83;;;;;;;-141.50;100.00;63355.56;5103507;28;20052;-77
2022/04/25 09:18:43;;;;;;;114.25;39.58;;;;;;;-141.50;100.00;63355.56;5104835;28;20078;-76
2022/04/25 09:21:14;;;;;;;117.95;38.72;;;;;;;-141.50;100.00;63355.56;5105229;28;20047;-77
2022/04/25 09:23:42;;;;;;;98.60;41.15;;;;;;;-141.50;100.00;63355.56;5102452;28;20055;-76
2022/04/25 09:26:17;;;;;;;84.20;38.58;;;;;;;-141.50;100.00;63355.56;5101453;28;20052;-76
2022/04/25 09:28:49;;;;;;;80.70;38.63;;;;;;;-141.50;100.00;63355.56;5091645;28;20048;-79
2022/04/25 09:31:18;;;;;;;74.00;37.10;;;;;;;-141.50;100.00;63355.56;5090677;28;20112;-80
2022/04/25 09:33:45;;;;;;;68.30;35.58;;;;;;;-141.50;100.00;63355.56;5091619;28;20051;-80
2022/04/25 09:36:12;;;;;;;65.10;35.25;;;;;;;-141.50;100.00;63355.56;5092228;28;20091;-81
2022/04/25 09:38:40;;;;;;;62.58;34.58;;;;;;;-141.50;100.00;63355.56;5089389;28;20071;-78
2022/04/25 09:41:09;;;;;;;67.40;33.72;;;;;;;-141.50;100.00;63355.56;5093385;28;20105;-79
2022/04/25 09:43:38;;;;;;;67.53;34.15;;;;;;;-141.50;100.00;63355.56;5091096;28;20123;-80
2022/04/25 09:46:07;;;;;;;68.60;36.13;;;;;;;-141.50;100.00;63355.56;5071402;28;20056;-81
2022/04/25 09:48:37;;;;;;;72.63;35.95;;;;;;;-141.50;100.00;63355.56;5069902;28;20139;-80
2022/04/25 09:51:07;;;;;;;74.07;37.25;;;;;;;-141.50;100.00;63355.56;5071165;28;20052;-79
2022/04/25 09:53:41;;;;;;;59.55;33.95;;;;;;;-141.50;100.00;63355.56;5067480;28;20127;-78
2022/04/25 09:56:13;;;;;;;60.65;33.83;;;;;;;-141.50;100.00;63355.56;5063732;28;20080;-79
2022/04/25 09:58:42;;;;;;;56.83;32.67;;;;;;;-141.50;100.00;63355.56;5067609;28;20080;-78
2022/04/25 10:01:13;;;;;;;57.92;32.55;;;;;;;-141.50;100.00;63355.56;5068398;28;20106;-76
2022/04/25 10:03:42;;;;;;;62.85;32.72;;;;;;;-141.50;100.00;63355.56;5082840;28;20316;-78
2022/04/25 10:06:09;;;;;;;63.28;34.17;;;;;;;-141.50;100.00;63355.56;5068873;28;20063;-79
2022/04/25 10:08:36;;;;;;;69.78;36.05;;;;;;;-141.50;100.00;63355.56;5065454;28;20106;-79
2022/04/25 10:11:05;;;;;;;60.75;32.80;;;;;;;-141.50;100.00;63355.56;5070127;28;20076;-78
2022/04/25 10:13:32;;;;;;;56.97;32.72;;;;;;;-141.50;100.00;63355.56;5077631;28;20377;-77
2022/04/25 10:16:00;;;;;;;54.42;31.70;;;;;;;-141.50;100.00;63355.56;5074777;28;20072;-78
2022/04/25 10:18:28;;;;;;;55.40;31.45;;;;;;;-141.50;100.00;63355.56;5082551;28;20117;-78
2022/04/25 10:20:55;;;;;;;52.42;30.30;;;;;;;-141.50;100.00;63355.56;5083018;28;20466;-79
2022/04/25 10:23:22;;;;;;;53.90;30.08;;;;;;;-141.50;100.00;63355.56;5068553;28;20055;-78
2022/04/25 10:25:55;;;;;;;49.17;29.63;;;;;;;-141.50;100.00;63355.56;5092689;28;20086;-80
2022/04/25 10:28:52;;;;;;;52.83;30.55;;;;;;;-141.50;100.00;63355.56;5096949;28;20531;-77
2022/04/25 10:31:23;;;;;;;58.25;30.23;;;;;;;-141.50;100.00;63355.56;5106551;28;20051;-78
2022/04/25 10:33:53;;;;;;;49.38;27.83;;;;;;;-141.50;100.00;63355.56;5099862;28;20044;-77
2022/04/25 10:36:38;;;;;;;53.05;29.98;;;;;;;-141.50;100.00;63355.56;5085108;28;20086;-78
2022/04/25 10:39:20;;;;;;;45.67;28.27;;;;;;;-141.50;100.00;63355.56;5074779;28;20140;-78
2022/04/25 10:44:38;;;;;;;48.70;27.67;;;;;;;-141.50;100.00;63355.56;5094120;28;20044;-79
2022/04/25 10:47:06;;;;;;;49.50;29.77;;;;;;;-141.50;100.00;63355.56;5084232;28;20091;-77
2022/04/25 10:49:35;;;;;;;48.45;29.10;;;;;;;-141.50;100.00;63355.56;5074170;28;20070;-78
2022/04/25 10:52:04;;;;;;;50.35;27.58;;;;;;;-141.50;100.00;63355.56;5076183;28;20056;-79
2022/04/25 10:55:09;;;;;;;48.33;29.83;;;;;;;-141.50;100.00;63355.56;5073389;28;20482;-78
2022/04/25 10:57:35;;;;;;;56.50;30.15;;;;;;;-141.50;100.00;63355.56;5067285;28;20125;-79
2022/04/25 11:00:24;;;;;;;54.67;30.40;;;;;;;-141.50;100.00;63355.56;5074626;28;20135;-81
2022/04/25 11:03:07;;;;;;;54.13;30.63;;;;;;;-141.50;100.00;63355.56;5074741;28;20052;-78
2022/04/25 11:05:35;;;;;;;44.50;28.85;;;;;;;-141.50;100.00;63355.56;5072789;28;20088;-81
2022/04/25 11:08:20;;;;;;;49.67;27.85;;;;;;;-141.50;100.00;63355.56;5071567;28;20106;-78
2022/04/25 11:11:18;;;;;;;46.53;27.58;;;;;;;-141.50;100.00;63355.56;5075461;28;20131;-79
2022/04/25 11:13:50;;;;;;;44.65;27.70;;;;;;;-141.50;100.00;63355.56;5075335;28;20413;-80
2022/04/25 11:16:21;;;;;;;43.15;26.67;;;;;;;-141.50;100.00;63355.56;5073582;28;20049;-79
2022/04/25 11:19:11;;;;;;;47.97;27.75;;;;;;;-141.50;100.00;63355.56;5073164;28;20095;-78
2022/04/25 11:21:58;;;;;;;47.47;26.58;;;;;;;-141.50;100.00;63355.56;5074050;28;20109;-76